Time;durP1;ratioP1;P1;durP2;ratioP2;P2;SDS_P1;SDS_P2;PMS_P1;PMS_P2;Temp;Humidity;BMP_temperature;BMP_pressure;BME280_temperature;BME280_humidity;BME280_pressure;Samples;Min_cycle;Max_cycle;Signal;HPM_P1;HPM_P2
2022/12/08 00:00:39;;;;;;;0.20;0.20;;;;;;;1.59;100.00;95951.06;4977546;28;20054;-74
2022/12/08 00:03:24;;;;;;;0.20;0.20;;;;;;;1.58;100.00;95949.44;4973125;28;20093;-73
2022/12/08 00:09:31;;;;;;;0.20;0.20;;;;;;;1.60;100.00;95939.50;4976658;28;20457;-75
2022/12/08 00:12:17;;;;;;;0.20;0.20;;;;;;;1.61;100.00;95943.75;4968612;28;20577;-75
2022/12/08 00:15:03;;;;;;;0.10;0.10;;;;;;;1.62;100.00;95938.25;4979093;28;20038;-74
2022/12/08 00:17:49;;;;;;;0.20;0.20;;;;;;;1.63;100.00;95941.69;4975590;28;20209;-75
2022/12/08 00:20:34;;;;;;;0.20;0.20;;;;;;;1.56;100.00;95925.09;4963362;28;20045;-73
2022/12/08 00:23:20;;;;;;;0.10;0.10;;;;;;;1.65;100.00;95929.16;4975464;28;20053;-74
2022/12/08 00:26:06;;;;;;;0.20;0.20;;;;;;;1.63;100.00;95931.16;4980167;28;20038;-75
2022/12/08 00:28:52;;;;;;;0.20;0.20;;;;;;;1.62;100.00;95937.44;4961192;28;20048;-75
2022/12/08 00:31:38;;;;;;;0.20;0.20;;;;;;;1.67;100.00;95930.56;4977077;28;20072;-75
2022/12/08 00:34:24;;;;;;;0.20;0.20;;;;;;;1.69;100.00;95925.06;4977125;28;20129;-74
2022/12/08 00:37:10;;;;;;;0.10;0.10;;;;;;;1.72;100.00;95913.31;4975699;28;20034;-75
2022/12/08 00:39:55;;;;;;;0.10;0.10;;;;;;;1.71;100.00;95911.66;4977547;28;20089;-73
2022/12/08 00:42:41;;;;;;;0.20;0.20;;;;;;;1.68;100.00;95907.63;4970014;28;20048;-74
2022/12/08 00:45:27;;;;;;;0.10;0.10;;;;;;;1.67;100.00;95906.81;4976988;28;20037;-74
2022/12/08 00:48:13;;;;;;;0.20;0.20;;;;;;;1.65;100.00;95908.84;4974733;28;20042;-75
2022/12/08 00:50:59;;;;;;;0.20;0.20;;;;;;;1.63;100.00;95896.88;4976754;28;20113;-74
2022/12/08 00:53:45;;;;;;;0.20;0.20;;;;;;;1.63;100.00;95899.50;4974099;28;20525;-74
2022/12/08 00:56:31;;;;;;;0.13;0.13;;;;;;;1.59;100.00;95898.31;4975556;28;20328;-75
2022/12/08 00:59:17;;;;;;;0.10;0.10;;;;;;;1.51;100.00;95895.88;4974078;28;20036;-76
2022/12/08 01:02:05;;;;;;;0.17;0.17;;;;;;;1.48;100.00;95896.28;4974036;28;20053;-73
2022/12/08 01:04:51;;;;;;;0.20;0.20;;;;;;;1.55;100.00;95892.63;4964321;28;20053;-75
2022/12/08 01:07:37;;;;;;;0.30;0.30;;;;;;;1.54;100.00;95898.09;4954503;28;20046;-73
2022/12/08 01:10:23;;;;;;;0.20;0.20;;;;;;;1.59;100.00;95893.03;4975700;28;20077;-73
2022/12/08 01:13:10;;;;;;;0.20;0.20;;;;;;;1.56;100.00;95893.47;4975360;28;20119;-76
2022/12/08 01:15:56;;;;;;;0.20;0.20;;;;;;;1.51;100.00;95887.97;4978732;28;20031;-75
2022/12/08 01:18:41;;;;;;;0.15;0.15;;;;;;;1.51;100.00;95882.69;4974798;28;20156;-75
2022/12/08 01:21:28;;;;;;;0.20;0.20;;;;;;;1.48;100.00;95888.38;4978585;28;20050;-75
2022/12/08 01:24:17;;;;;;;0.15;0.15;;;;;;;1.50;100.00;95899.53;4976847;28;20487;-74
2022/12/08 01:27:03;;;;;;;0.20;0.20;;;;;;;1.47;100.00;95895.47;4967288;28;20108;-74
2022/12/08 01:29:49;;;;;;;0.20;0.20;;;;;;;1.48;100.00;95896.28;4977722;28;20165;-74
2022/12/08 01:32:35;;;;;;;0.20;0.20;;;;;;;1.44;100.00;95901.16;4974639;28;20317;-75
2022/12/08 01:35:21;;;;;;;0.10;0.10;;;;;;;1.39;100.00;95908.88;4974332;28;20366;-75
2022/12/08 01:38:07;;;;;;;0.20;0.20;;;;;;;1.36;100.00;95898.75;4961180;28;20511;-74
2022/12/08 01:40:53;;;;;;;0.20;0.20;;;;;;;1.38;100.00;95902.78;4977220;28;20395;-75
2022/12/08 01:44:00;;;;;;;0.20;0.20;;;;;;;1.39;100.00;95907.03;4975473;28;20038;-75
2022/12/08 01:46:49;;;;;;;0.20;0.20;;;;;;;1.34;100.00;95904.22;4966374;28;20116;-74
2022/12/08 01:49:36;;;;;;;0.20;0.20;;;;;;;1.32;100.00;95893.09;4973653;28;20049;-75
2022/12/08 01:52:30;;;;;;;0.20;0.20;;;;;;;1.34;100.00;95891.03;4972688;28;20339;-75
2022/12/08 01:55:19;;;;;;;0.10;0.10;;;;;;;1.33;100.00;95899.16;4968219;28;20363;-73
2022/12/08 01:58:20;;;;;;;0.30;0.30;;;;;;;1.34;100.00;95896.31;4969043;28;20049;-74
2022/12/08 02:01:06;;;;;;;0.20;0.20;;;;;;;1.32;100.00;95882.53;4977717;28;20602;-75
2022/12/08 02:03:58;;;;;;;0.15;0.15;;;;;;;1.32;100.00;95881.69;4974662;28;20549;-74
2022/12/08 02:06:47;;;;;;;0.20;0.20;;;;;;;1.30;100.00;95879.28;4960264;28;20030;-73
2022/12/08 02:09:34;;;;;;;0.20;0.20;;;;;;;1.30;100.00;95871.38;4975133;28;20385;-74
2022/12/08 02:12:20;;;;;;;0.20;0.20;;;;;;;1.31;100.00;95874.81;4970500;28;20486;-74
2022/12/08 02:15:06;;;;;;;0.20;0.20;;;;;;;1.27;100.00;95882.31;4974971;28;20477;-73
2022/12/08 02:18:15;;;;;;;0.17;0.17;;;;;;;1.35;100.00;95876.03;4976523;28;20283;-75
2022/12/08 02:21:13;;;;;;;0.10;0.10;;;;;;;1.40;100.00;95865.66;4976248;28;20046;-74
2022/12/08 02:24:30;;;;;;;0.20;0.20;;;;;;;1.39;100.00;95861.41;4975802;28;20521;-75
2022/12/08 02:27:37;;;;;;;0.20;0.20;;;;;;;1.33;100.00;95859.63;4972938;28;20042;-75
2022/12/08 02:30:32;;;;;;;0.20;0.20;;;;;;;1.30;100.00;95858.19;4973262;28;20221;-73
2022/12/08 02:33:39;;;;;;;0.20;0.20;;;;;;;1.33;100.00;95856.97;4973955;28;20050;-75
2022/12/08 02:36:43;;;;;;;0.20;0.20;;;;;;;1.33;100.00;95856.97;4971579;28;20156;-74
2022/12/08 02:39:55;;;;;;;0.20;0.20;;;;;;;1.28;100.00;95852.31;4972212;28;20183;-74
2022/12/08 02:42:50;;;;;;;0.20;0.20;;;;;;;1.23;100.00;95844.19;4975036;28;20802;-74
2022/12/08 02:45:43;;;;;;;0.20;0.20;;;;;;;1.27;100.00;95855.16;4978408;28;20049;-72
2022/12/08 02:48:32;;;;;;;0.20;0.20;;;;;;;1.34;100.00;95845.41;4974711;28;20402;-73
2022/12/08 02:51:18;;;;;;;0.20;0.20;;;;;;;1.31;100.00;95851.88;4973640;28;20068;-73
2022/12/08 02:54:04;;;;;;;0.20;0.20;;;;;;;1.28;100.00;95835.69;4974249;28;20514;-75
2022/12/08 02:57:01;;;;;;;0.20;0.20;;;;;;;1.32;100.00;95843.00;4970548;28;20050;-75
2022/12/08 03:00:06;;;;;;;0.20;0.20;;;;;;;1.31;100.00;95840.53;4972126;28;20046;-72
2022/12/08 03:03:32;;;;;;;0.20;0.20;;;;;;;1.32;100.00;95835.09;4973314;28;20430;-74
2022/12/08 03:06:38;;;;;;;0.20;0.20;;;;;;;1.28;100.00;95828.59;4972180;28;20042;-72
2022/12/08 03:09:51;;;;;;;0.20;0.20;;;;;;;1.35;100.00;95828.56;4973969;28;20070;-73
2022/12/08 03:12:49;;;;;;;0.10;0.10;;;;;;;1.33;100.00;95827.97;4972854;28;20057;-75
2022/12/08 03:15:37;;;;;;;0.25;0.25;;;;;;;1.32;100.00;95821.91;4965489;28;20038;-75
2022/12/08 03:18:30;;;;;;;0.20;0.20;;;;;;;1.22;100.00;95824.13;4974462;28;20042;-75
2022/12/08 03:21:19;;;;;;;0.20;0.20;;;;;;;1.26;100.00;95809.53;4975337;28;20362;-73
2022/12/08 03:24:06;;;;;;;0.20;0.20;;;;;;;1.27;100.00;95811.16;4972119;28;20037;-75
2022/12/08 03:27:17;;;;;;;0.20;0.20;;;;;;;1.28;100.00;95809.31;4976156;28;20229;-74
2022/12/08 03:30:04;;;;;;;0.20;0.20;;;;;;;1.30;100.00;95810.72;4975384;28;20074;-74
2022/12/08 03:33:05;;;;;;;0.20;0.20;;;;;;;1.26;100.00;95804.28;4963548;28;20050;-74
2022/12/08 03:35:53;;;;;;;0.20;0.20;;;;;;;1.28;100.00;95799.59;4977558;28;20141;-74
2022/12/08 03:38:42;;;;;;;0.20;0.20;;;;;;;1.06;100.00;95795.56;4957302;28;20045;-75
2022/12/08 03:41:28;;;;;;;0.20;0.20;;;;;;;1.19;100.00;95794.75;4970914;28;20377;-73
2022/12/08 03:44:13;;;;;;;0.20;0.20;;;;;;;0.93;100.00;95788.47;4981309;28;20473;-74
2022/12/08 03:46:59;;;;;;;0.20;0.20;;;;;;;1.11;100.00;95790.50;4980563;28;20042;-72
2022/12/08 03:49:45;;;;;;;0.20;0.20;;;;;;;1.18;100.00;95791.31;4979131;28;20042;-73
2022/12/08 03:52:31;;;;;;;0.20;0.20;;;;;;;1.18;100.00;95782.59;4976946;28;20058;-75
2022/12/08 03:55:17;;;;;;;0.20;0.20;;;;;;;1.05;100.00;95783.41;4979586;28;20057;-75
2022/12/08 03:58:03;;;;;;;0.10;0.10;;;;;;;1.13;100.00;95775.28;4979359;28;20099;-72
2022/12/08 04:00:49;;;;;;;0.20;0.20;;;;;;;1.21;100.00;95776.91;4981982;28;20041;-73
2022/12/08 04:03:35;;;;;;;0.20;0.20;;;;;;;1.20;100.00;95765.53;4976002;28;20037;-74
2022/12/08 04:06:21;;;;;;;0.20;0.20;;;;;;;1.25;100.00;95760.47;4977901;28;20096;-75
2022/12/08 04:09:07;;;;;;;0.20;0.20;;;;;;;1.27;100.00;95766.34;4976667;28;20054;-75
2022/12/08 04:11:52;;;;;;;0.20;0.20;;;;;;;1.26;100.00;95761.28;4977113;28;20106;-74
2022/12/08 04:14:38;;;;;;;0.20;0.20;;;;;;;1.18;100.00;95761.50;4978011;28;20129;-74
2022/12/08 04:17:25;;;;;;;0.20;0.20;;;;;;;1.19;100.00;95763.94;4977633;28;20053;-73
2022/12/08 04:20:11;;;;;;;0.20;0.20;;;;;;;1.23;100.00;95761.69;4978608;28;20156;-75
2022/12/08 04:22:57;;;;;;;0.20;0.20;;;;;;;1.28;100.00;95753.97;4965345;28;20115;-74
2022/12/08 04:25:42;;;;;;;0.20;0.20;;;;;;;1.17;100.00;95747.53;4978730;28;20578;-75
2022/12/08 04:28:28;;;;;;;0.15;0.15;;;;;;;1.22;100.00;95750.31;4975861;28;20046;-72
2022/12/08 04:31:14;;;;;;;0.20;0.20;;;;;;;1.25;100.00;95744.66;4979435;28;20174;-74
2022/12/08 04:34:00;;;;;;;0.10;0.10;;;;;;;1.31;100.00;95748.28;4978627;28;20075;-73
2022/12/08 04:36:46;;;;;;;0.15;0.15;;;;;;;1.33;100.00;95746.25;4972316;28;20042;-73
2022/12/08 04:39:32;;;;;;;0.10;0.10;;;;;;;1.31;100.00;95735.91;4976058;28;20419;-74
2022/12/08 04:42:18;;;;;;;0.20;0.20;;;;;;;1.31;100.00;95737.72;4976471;28;20045;-72
2022/12/08 04:45:04;;;;;;;0.10;0.10;;;;;;;1.35;100.00;95741.59;4977138;28;20205;-73
2022/12/08 04:47:50;;;;;;;0.20;0.20;;;;;;;1.29;100.00;95734.50;4977865;28;20049;-73
2022/12/08 04:50:39;;;;;;;0.20;0.20;;;;;;;1.27;100.00;95739.19;4965641;28;20042;-74
2022/12/08 04:53:26;;;;;;;0.20;0.20;;;;;;;1.35;100.00;95739.75;4974714;28;20049;-75
2022/12/08 04:56:17;;;;;;;0.20;0.20;;;;;;;1.34;100.00;95737.34;4978241;28;20046;-75
2022/12/08 04:59:02;;;;;;;0.20;0.20;;;;;;;1.30;100.00;95729.00;4976825;28;20125;-75
2022/12/08 05:01:48;;;;;;;0.20;0.20;;;;;;;1.32;100.00;95734.91;4975736;28;20039;-75
2022/12/08 05:04:35;;;;;;;0.20;0.20;;;;;;;1.28;100.00;95728.41;4979966;28;20606;-74
2022/12/08 05:07:20;;;;;;;0.20;0.20;;;;;;;1.27;100.00;95724.16;4977482;28;20294;-74
2022/12/08 05:10:07;;;;;;;0.20;0.20;;;;;;;1.25;100.00;95728.03;4979011;28;20074;-72
2022/12/08 05:12:53;;;;;;;0.20;0.20;;;;;;;1.28;100.00;95724.97;4977020;28;20275;-75
2022/12/08 05:15:39;;;;;;;0.20;0.20;;;;;;;1.28;100.00;95723.16;4980000;28;20522;-75
2022/12/08 05:18:25;;;;;;;0.20;0.20;;;;;;;1.11;100.00;95720.16;4977613;28;20273;-73
2022/12/08 05:21:11;;;;;;;0.20;0.20;;;;;;;1.07;100.00;95712.88;4978486;28;20038;-75
2022/12/08 05:23:57;;;;;;;0.10;0.10;;;;;;;1.08;100.00;95712.66;4979010;28;20999;-74
2022/12/08 05:26:42;;;;;;;0.20;0.20;;;;;;;1.13;100.00;95719.94;4967640;28;20052;-75
2022/12/08 05:29:28;;;;;;;0.20;0.20;;;;;;;1.04;100.00;95716.72;4975661;28;20346;-73
2022/12/08 05:32:15;;;;;;;0.15;0.15;;;;;;;0.70;100.00;95715.19;4977174;28;20042;-72
2022/12/08 05:35:01;;;;;;;0.20;0.20;;;;;;;0.89;100.00;95712.72;4977013;28;20416;-74
2022/12/08 05:37:50;;;;;;;0.20;0.20;;;;;;;1.02;100.00;95707.44;4978507;28;20125;-76
2022/12/08 05:40:38;;;;;;;0.20;0.20;;;;;;;1.15;100.00;95707.38;4977981;28;20534;-74
2022/12/08 05:43:24;;;;;;;0.20;0.20;;;;;;;1.08;100.00;95711.84;4973012;28;20046;-74
2022/12/08 05:46:10;;;;;;;0.20;0.20;;;;;;;1.11;100.00;95709.63;4979317;28;20034;-73
2022/12/08 05:48:58;;;;;;;0.20;0.20;;;;;;;1.11;100.00;95706.19;4977107;28;20038;-74
2022/12/08 05:51:44;;;;;;;0.22;0.22;;;;;;;1.18;100.00;95711.44;4976381;28;20355;-74
2022/12/08 05:54:30;;;;;;;0.20;0.20;;;;;;;1.13;100.00;95706.78;4977067;28;20502;-75
2022/12/08 05:57:16;;;;;;;0.20;0.20;;;;;;;1.02;100.00;95699.53;4976969;28;20041;-75
2022/12/08 06:00:03;;;;;;;0.20;0.20;;;;;;;1.04;100.00;95694.84;4977380;28;20133;-75
2022/12/08 06:02:57;;;;;;;0.30;0.30;;;;;;;1.09;100.00;95701.13;4976323;28;20414;-74
2022/12/08 06:05:45;;;;;;;0.20;0.20;;;;;;;1.05;100.00;95696.47;4976829;28;20034;-75
2022/12/08 06:08:31;;;;;;;0.20;0.20;;;;;;;1.03;100.00;95698.50;4976409;28;20481;-72
2022/12/08 06:11:26;;;;;;;0.20;0.20;;;;;;;1.08;100.00;95703.94;4977679;28;20038;-74
2022/12/08 06:14:12;;;;;;;0.20;0.20;;;;;;;1.02;100.00;95696.88;4964018;28;20038;-75
2022/12/08 06:16:58;;;;;;;0.20;0.20;;;;;;;1.07;100.00;95695.22;4977712;28;20570;-73
2022/12/08 06:19:44;;;;;;;0.20;0.20;;;;;;;0.90;100.00;95693.25;4978979;28;20096;-73
2022/12/08 06:22:29;;;;;;;0.20;0.20;;;;;;;0.83;100.00;95685.38;4953043;28;20050;-71
2022/12/08 06:25:15;;;;;;;0.20;0.20;;;;;;;0.94;100.00;95687.38;4975472;28;20054;-75
2022/12/08 06:28:05;;;;;;;0.20;0.20;;;;;;;0.96;100.00;95702.97;4975579;28;20185;-74
2022/12/08 06:30:50;;;;;;;0.10;0.10;;;;;;;0.94;100.00;95697.91;4977725;28;20206;-72
2022/12/08 06:33:37;;;;;;;0.20;0.20;;;;;;;0.97;100.00;95686.97;4972703;28;20062;-74
2022/12/08 06:36:25;;;;;;;0.20;0.20;;;;;;;0.94;100.00;95691.84;4978544;28;20189;-75
2022/12/08 06:39:11;;;;;;;0.20;0.20;;;;;;;1.02;100.00;95694.25;4976057;28;20395;-75
2022/12/08 06:45:06;;;;;;;0.20;0.20;;;;;;;1.11;100.00;95700.91;4977435;28;20430;-75
2022/12/08 06:47:52;;;;;;;0.20;0.20;;;;;;;0.92;100.00;95693.84;4976649;28;20057;-74
2022/12/08 06:50:38;;;;;;;0.20;0.20;;;;;;;1.04;100.00;95697.47;4973102;28;20061;-73
2022/12/08 06:53:24;;;;;;;0.20;0.20;;;;;;;1.05;100.00;95707.00;4975895;28;20049;-75
2022/12/08 06:56:14;;;;;;;0.20;0.20;;;;;;;1.07;100.00;95700.50;4977842;28;20498;-73
2022/12/08 06:59:00;;;;;;;0.20;0.20;;;;;;;1.03;100.00;95704.59;4977340;28;20034;-74
2022/12/08 07:01:46;;;;;;;0.10;0.10;;;;;;;1.01;100.00;95688.19;4961245;28;20487;-74
2022/12/08 07:04:32;;;;;;;0.10;0.10;;;;;;;1.07;100.00;95694.41;4975940;28;20049;-74
2022/12/08 07:07:18;;;;;;;0.10;0.10;;;;;;;1.07;100.00;95700.50;4973430;28;20046;-72
2022/12/08 07:10:04;;;;;;;0.10;0.10;;;;;;;1.00;100.00;95698.91;4961226;28;20063;-74
2022/12/08 07:12:50;;;;;;;0.20;0.20;;;;;;;1.10;100.00;95708.00;4976292;28;20255;-73
2022/12/08 07:15:36;;;;;;;0.20;0.20;;;;;;;1.09;100.00;95708.22;4962871;28;20477;-73
2022/12/08 07:18:22;;;;;;;0.20;0.20;;;;;;;1.15;100.00;95704.72;4973832;28;20092;-74
2022/12/08 07:21:13;;;;;;;0.20;0.20;;;;;;;1.08;100.00;95704.75;4979608;28;20152;-74
2022/12/08 07:23:59;;;;;;;0.20;0.20;;;;;;;1.11;100.00;95712.25;4975387;28;20060;-72
2022/12/08 07:26:45;;;;;;;0.20;0.20;;;;;;;1.11;100.00;95704.34;4963707;28;20030;-74
2022/12/08 07:29:31;;;;;;;0.20;0.20;;;;;;;1.16;100.00;95708.97;4974894;28;20458;-72
2022/12/08 07:32:17;;;;;;;0.20;0.20;;;;;;;1.19;100.00;95713.84;4973083;28;20478;-74
2022/12/08 07:35:04;;;;;;;0.20;0.20;;;;;;;1.19;100.00;95715.69;4974376;28;20237;-74
2022/12/08 07:37:50;;;;;;;0.10;0.10;;;;;;;1.19;100.00;95710.41;4975181;28;20387;-73
2022/12/08 07:40:37;;;;;;;0.20;0.20;;;;;;;1.19;100.00;95707.78;4977483;28;20050;-74
2022/12/08 07:43:23;;;;;;;0.10;0.10;;;;;;;1.25;100.00;95705.13;4965052;28;20580;-74
2022/12/08 07:46:17;;;;;;;0.20;0.20;;;;;;;1.29;100.00;95708.13;4978744;28;20125;-74
2022/12/08 07:49:03;;;;;;;0.20;0.20;;;;;;;1.23;100.00;95693.16;4973741;28;20052;-72
2022/12/08 07:51:48;;;;;;;0.20;0.20;;;;;;;1.29;100.00;95694.97;4975199;28;20046;-74
2022/12/08 07:54:34;;;;;;;0.20;0.20;;;;;;;1.31;100.00;95700.81;4976202;28;20099;-75
2022/12/08 07:57:21;;;;;;;0.20;0.20;;;;;;;1.24;100.00;95698.22;4975424;28;20133;-75
2022/12/08 08:00:09;;;;;;;0.20;0.20;;;;;;;1.26;100.00;95704.09;4976429;28;20152;-75
2022/12/08 08:02:58;;;;;;;0.20;0.20;;;;;;;1.22;100.00;95697.63;4972828;28;20042;-75
2022/12/08 08:05:44;;;;;;;0.20;0.20;;;;;;;1.22;100.00;95697.63;4962339;28;20474;-74
2022/12/08 08:08:30;;;;;;;0.20;0.20;;;;;;;1.31;100.00;95701.63;4975022;28;20038;-73
2022/12/08 08:11:18;;;;;;;0.20;0.20;;;;;;;1.30;100.00;95704.47;4975572;28;20047;-75
2022/12/08 08:14:04;;;;;;;0.20;0.20;;;;;;;1.35;100.00;95705.47;4973941;28;20383;-72
2022/12/08 08:16:50;;;;;;;0.35;0.20;;;;;;;1.21;100.00;95698.63;4975865;28;20070;-73
2022/12/08 08:19:36;;;;;;;0.20;0.20;;;;;;;1.24;100.00;95707.94;4973276;28;20034;-73
2022/12/08 08:22:21;;;;;;;0.20;0.20;;;;;;;1.31;100.00;95706.91;4973433;28;20446;-75
2022/12/08 08:25:08;;;;;;;0.20;0.20;;;;;;;1.26;100.00;95704.09;4975621;28;20468;-74
2022/12/08 08:27:54;;;;;;;0.20;0.20;;;;;;;1.34;100.00;95708.34;4978299;28;20664;-74
2022/12/08 08:30:40;;;;;;;0.20;0.20;;;;;;;1.32;100.00;95698.00;4976766;28;20054;-72
2022/12/08 08:33:26;;;;;;;0.10;0.10;;;;;;;1.35;100.00;95704.69;4975868;28;20104;-72
2022/12/08 08:36:12;;;;;;;0.20;0.20;;;;;;;1.34;100.00;95703.06;4976217;28;20042;-73
2022/12/08 08:38:58;;;;;;;0.20;0.20;;;;;;;1.28;100.00;95707.34;4965404;28;20069;-74
2022/12/08 08:41:47;;;;;;;0.20;0.20;;;;;;;1.35;100.00;95694.94;4978656;28;20038;-74
2022/12/08 08:44:33;;;;;;;0.20;0.20;;;;;;;1.43;100.00;95706.28;4977519;28;20074;-74
2022/12/08 08:47:19;;;;;;;0.20;0.20;;;;;;;1.36;100.00;95701.00;4969322;28;20160;-72
2022/12/08 08:50:05;;;;;;;0.20;0.20;;;;;;;1.46;100.00;95704.00;4976850;28;20383;-75
2022/12/08 08:52:51;;;;;;;0.20;0.20;;;;;;;1.50;100.00;95696.50;4971433;28;20050;-73
2022/12/08 08:55:38;;;;;;;0.20;0.20;;;;;;;1.51;100.00;95701.56;4979596;28;20441;-72
2022/12/08 08:58:24;;;;;;;0.20;0.20;;;;;;;1.51;100.00;95698.13;4975381;28;20133;-74
2022/12/08 09:01:30;;;;;;;0.20;0.20;;;;;;;1.59;100.00;95698.69;4979920;28;20306;-76
2022/12/08 09:04:16;;;;;;;0.20;0.20;;;;;;;1.59;100.00;95697.88;4979333;28;20633;-73
2022/12/08 09:07:02;;;;;;;0.20;0.20;;;;;;;1.60;100.00;95689.75;4979311;28;20129;-73
2022/12/08 09:09:48;;;;;;;0.20;0.20;;;;;;;1.75;100.00;95700.03;4979873;28;20089;-74
2022/12/08 09:12:34;;;;;;;0.20;0.20;;;;;;;1.63;100.00;95693.78;4976443;28;20050;-73
2022/12/08 09:15:19;;;;;;;0.20;0.20;;;;;;;1.61;100.00;95699.28;4979505;28;20054;-75
2022/12/08 09:18:05;;;;;;;0.20;0.20;;;;;;;1.60;100.00;95691.56;4966368;28;20154;-76
2022/12/08 09:20:52;;;;;;;0.20;0.20;;;;;;;1.56;100.00;95698.31;4979499;28;20184;-74
2022/12/08 09:23:38;;;;;;;0.20;0.20;;;;;;;1.57;100.00;95700.72;4975656;28;20495;-73
2022/12/08 09:26:26;;;;;;;0.20;0.20;;;;;;;1.54;100.00;95689.78;4978380;28;20405;-76
2022/12/08 09:29:13;;;;;;;0.10;0.10;;;;;;;1.67;100.00;95697.63;4976314;28;20046;-76
2022/12/08 09:31:59;;;;;;;0.20;0.20;;;;;;;1.72;100.00;95691.72;4977313;28;20403;-74
2022/12/08 09:34:45;;;;;;;0.20;0.20;;;;;;;1.78;100.00;95696.13;4971450;28;20495;-74
2022/12/08 09:37:31;;;;;;;0.20;0.20;;;;;;;1.84;100.00;95698.75;4977093;28;20050;-76
2022/12/08 09:40:20;;;;;;;0.20;0.20;;;;;;;1.72;100.00;95705.72;4965786;28;20044;-75
2022/12/08 09:43:13;;;;;;;0.20;0.20;;;;;;;1.74;100.00;95698.41;4978756;28;20042;-76
2022/12/08 09:46:00;;;;;;;0.20;0.20;;;;;;;1.80;100.00;95708.13;4978030;28;20037;-74
2022/12/08 09:48:54;;;;;;;0.20;0.20;;;;;;;1.81;100.00;95699.19;4976071;28;20137;-74
2022/12/08 09:51:42;;;;;;;0.20;0.20;;;;;;;1.81;100.00;95691.25;4976991;28;20837;-76
2022/12/08 09:54:34;;;;;;;0.28;0.28;;;;;;;1.68;100.00;95709.78;4975706;28;20452;-76
2022/12/08 09:57:23;;;;;;;0.20;0.20;;;;;;;1.68;100.00;95696.59;4977476;28;20184;-74
2022/12/08 10:00:12;;;;;;;0.20;0.20;;;;;;;1.61;100.00;95699.28;4978371;28;20049;-76
2022/12/08 10:02:58;;;;;;;0.20;0.20;;;;;;;1.57;100.00;95699.91;4964538;28;20084;-73
2022/12/08 10:06:06;;;;;;;0.20;0.20;;;;;;;1.47;100.00;95694.28;4964062;28;20566;-73
2022/12/08 10:09:10;;;;;;;0.20;0.20;;;;;;;1.54;100.00;95695.06;4970654;28;20042;-76
2022/12/08 10:12:07;;;;;;;0.20;0.20;;;;;;;1.58;100.00;95688.34;4976658;28;20609;-76
2022/12/08 10:14:55;;;;;;;0.20;0.20;;;;;;;1.52;100.00;95694.47;4978340;28;20195;-74
2022/12/08 10:17:47;;;;;;;0.20;0.20;;;;;;;1.48;100.00;95695.88;4976013;28;20430;-75
2022/12/08 10:20:40;;;;;;;0.20;0.20;;;;;;;1.52;100.00;95697.91;4978168;28;20379;-74
2022/12/08 10:23:33;;;;;;;0.20;0.20;;;;;;;1.56;100.00;95675.38;4975516;28;20053;-76
2022/12/08 10:26:21;;;;;;;0.10;0.10;;;;;;;1.59;100.00;95677.59;4980140;28;20464;-75
2022/12/08 10:29:12;;;;;;;0.20;0.20;;;;;;;1.60;100.00;95679.19;4977875;28;20420;-74
2022/12/08 10:31:58;;;;;;;0.20;0.20;;;;;;;1.64;100.00;95667.22;4969996;28;20484;-75
2022/12/08 10:35:02;;;;;;;0.13;0.13;;;;;;;1.82;100.00;95668.31;4976105;28;20041;-75
2022/12/08 10:37:57;;;;;;;0.20;0.20;;;;;;;1.86;100.00;95665.03;4976782;28;20104;-75
2022/12/08 10:40:44;;;;;;;0.20;0.20;;;;;;;1.82;100.00;95645.38;4976314;28;20453;-73
2022/12/08 10:43:35;;;;;;;0.20;0.20;;;;;;;1.94;100.00;95643.66;4967326;28;20085;-76
2022/12/08 10:46:26;;;;;;;0.20;0.20;;;;;;;1.91;100.00;95653.84;4967903;28;20038;-75
2022/12/08 10:49:31;;;;;;;0.20;0.20;;;;;;;1.85;100.00;95652.88;4976764;28;20383;-72
2022/12/08 10:52:24;;;;;;;0.20;0.20;;;;;;;1.94;100.00;95656.84;4977112;28;20034;-74
2022/12/08 10:55:18;;;;;;;0.20;0.20;;;;;;;1.92;100.00;95642.28;4981073;28;20600;-74
2022/12/08 10:58:04;;;;;;;0.20;0.20;;;;;;;1.90;100.00;95645.13;4962490;28;20234;-75
2022/12/08 11:01:03;;;;;;;0.20;0.20;;;;;;;1.97;100.00;95631.09;4977730;28;20038;-73
2022/12/08 11:03:51;;;;;;;0.20;0.20;;;;;;;2.18;100.00;95628.09;4977139;28;20048;-74
2022/12/08 11:06:38;;;;;;;0.20;0.20;;;;;;;2.28;100.00;95636.31;4973400;28;20073;-73
2022/12/08 11:09:38;;;;;;;0.20;0.20;;;;;;;2.26;100.00;95633.09;4961959;28;21479;-75
2022/12/08 11:12:28;;;;;;;0.20;0.20;;;;;;;2.14;100.00;95629.53;4972374;28;20403;-75
2022/12/08 11:15:17;;;;;;;0.20;0.20;;;;;;;2.14;100.00;95621.59;4962688;28;20049;-73
2022/12/08 11:18:26;;;;;;;0.20;0.20;;;;;;;2.20;100.00;95633.94;4976418;28;20035;-72
2022/12/08 11:21:16;;;;;;;0.10;0.10;;;;;;;2.16;100.00;95638.03;4977152;28;20050;-73
2022/12/08 11:24:24;;;;;;;0.20;0.20;;;;;;;2.21;100.00;95632.91;4975027;28;21228;-75
2022/12/08 11:27:10;;;;;;;0.20;0.20;;;;;;;2.17;100.00;95629.09;4974482;28;20422;-75
2022/12/08 11:29:56;;;;;;;0.20;0.20;;;;;;;2.12;100.00;95623.66;4976947;28;20586;-75
2022/12/08 11:32:47;;;;;;;0.20;0.20;;;;;;;2.04;100.00;95618.66;4974562;28;21127;-73
2022/12/08 11:35:37;;;;;;;0.20;0.20;;;;;;;1.94;100.00;95625.19;4627926;28;10000407;-74
2022/12/08 11:38:26;;;;;;;0.20;0.20;;;;;;;2.12;100.00;95621.84;4632936;28;10001457;-75
2022/12/08 11:41:21;;;;;;;0.20;0.20;;;;;;;2.22;100.00;95613.41;4971952;28;20547;-75
2022/12/08 11:44:45;;;;;;;0.20;0.20;;;;;;;2.23;100.00;95615.03;4970888;28;20057;-73
2022/12/08 11:47:42;;;;;;;0.20;0.20;;;;;;;2.38;100.00;95619.97;4972895;28;20053;-74
2022/12/08 11:50:37;;;;;;;0.20;0.20;;;;;;;2.48;100.00;95613.16;4974932;28;20561;-74
2022/12/08 11:53:34;;;;;;;0.20;0.20;;;;;;;2.45;100.00;95607.53;4974188;28;20046;-75
2022/12/08 11:56:36;;;;;;;0.20;0.20;;;;;;;2.39;100.00;95614.47;4973897;28;20057;-74
2022/12/08 11:59:28;;;;;;;0.20;0.20;;;;;;;2.37;100.00;95613.09;4972040;28;21373;-75
2022/12/08 12:02:24;;;;;;;0.20;0.20;;;;;;;2.27;100.00;95610.94;4977387;28;20050;-75
2022/12/08 12:05:22;;;;;;;0.20;0.20;;;;;;;2.10;100.00;95602.78;4977449;28;20439;-75
2022/12/08 12:08:54;;;;;;;0.20;0.20;;;;;;;1.94;100.00;95612.00;4975237;28;20349;-75
2022/12/08 12:12:21;;;;;;;0.20;0.20;;;;;;;1.86;100.00;95603.53;4964917;28;20265;-73
2022/12/08 12:15:28;;;;;;;0.20;0.20;;;;;;;1.83;100.00;95598.72;4974643;28;20054;-75
2022/12/08 12:18:48;;;;;;;0.22;0.22;;;;;;;1.93;100.00;95609.59;4977273;28;20042;-75
2022/12/08 12:21:48;;;;;;;0.20;0.20;;;;;;;1.94;100.00;95603.28;4978295;28;20038;-75
2022/12/08 12:24:37;;;;;;;0.20;0.20;;;;;;;2.00;100.00;95601.63;4968610;28;20416;-74
2022/12/08 12:27:28;;;;;;;0.20;0.20;;;;;;;2.19;100.00;95603.31;4976966;28;20590;-75
2022/12/08 12:30:29;;;;;;;0.20;0.20;;;;;;;2.09;100.00;95597.69;4977658;28;20049;-76
2022/12/08 12:33:17;;;;;;;0.20;0.20;;;;;;;2.16;100.00;95593.97;4946524;28;20133;-75
2022/12/08 12:36:06;;;;;;;0.17;0.17;;;;;;;2.25;100.00;95591.84;4949410;28;20048;-76
2022/12/08 12:39:00;;;;;;;0.20;0.20;;;;;;;2.30;100.00;95588.56;4937315;28;20387;-75
2022/12/08 12:41:52;;;;;;;0.20;0.20;;;;;;;2.22;100.00;95589.66;4938145;28;20667;-75
2022/12/08 12:44:39;;;;;;;0.20;0.20;;;;;;;2.13;100.00;95589.13;4938093;28;20078;-73
2022/12/08 12:47:47;;;;;;;0.20;0.20;;;;;;;2.17;100.00;95581.56;4937881;28;20142;-75
2022/12/08 12:50:33;;;;;;;0.20;0.20;;;;;;;2.07;100.00;95590.00;4951620;28;20059;-75
2022/12/08 12:53:19;;;;;;;0.20;0.20;;;;;;;2.06;100.00;95590.22;4937122;28;20595;-75
2022/12/08 12:56:06;;;;;;;0.20;0.20;;;;;;;2.09;100.00;95581.84;4938652;28;20042;-75
2022/12/08 12:58:53;;;;;;;0.20;0.20;;;;;;;2.23;100.00;95586.00;4939086;28;20055;-75
2022/12/08 13:01:53;;;;;;;0.20;0.20;;;;;;;2.23;100.00;95581.50;4936591;28;20043;-73
2022/12/08 13:04:52;;;;;;;0.20;0.20;;;;;;;2.25;100.00;95578.66;4933678;28;20154;-76
2022/12/08 13:07:42;;;;;;;0.20;0.20;;;;;;;2.30;100.00;95576.19;4934104;28;20038;-73
2022/12/08 13:10:37;;;;;;;0.20;0.20;;;;;;;2.30;100.00;95568.25;4940261;28;20138;-74
2022/12/08 13:13:23;;;;;;;0.15;0.15;;;;;;;2.40;100.00;95573.03;4938105;28;20499;-76
2022/12/08 13:16:08;;;;;;;0.20;0.20;;;;;;;2.40;100.00;95570.38;4938925;28;20047;-75
2022/12/08 13:19:02;;;;;;;0.20;0.20;;;;;;;2.45;100.00;95567.91;4931723;28;20070;-75
2022/12/08 13:21:48;;;;;;;0.20;0.20;;;;;;;2.51;100.00;95561.75;4937692;28;20305;-72
2022/12/08 13:24:34;;;;;;;0.20;0.20;;;;;;;2.47;100.00;95571.94;4940664;28;20500;-74
2022/12/08 13:27:28;;;;;;;0.20;0.20;;;;;;;2.43;100.00;95568.13;4940014;28;20054;-75